PWSweather.com
Personal Weather Stations
Station Observations
STPETERS
BroadstairsGB

BroadstairsGB

Lat: 51.37, Lon: 1.423

Elevation: 141

Station Type: WH1081

Latest ConditionsUpdated 3:19:18 PM GMT Sunday, Jun 26, 2016
Currently Today's Max Today's Min Today's Average
Temperature 68.7°F20.4°C 68.9°F20.5°C 53.6°F12.0°C 59.6°F15.3°C
Dew Point 49.3°F9.6°C 53.9°F12.2°C 45.9°F7.7°C 49.0°F9.4°C
Winds 4.1 mph SW6.6 kmh SW 10.4 mph W16.7 kmh W - 5.9 mph 9.5 kmh
Wind Gusts 6.0 mph9.7 kmh 15.2 mph24.5 kmh - -
Humidity 50% 82% 50% 69%
Pressure 30.05 in1017.6 mb 30.07 in1018.3 mb 30.02 in1016.6 mb -
Precipitation - 0.63 in16.0 mm - -
Hour Temp Dew Point Humidity Winds Wind Gusts Pressure Precip Precip Rate Daily Precip Total
03:19 PM 68.7°F20.4°C 49.3°F9.6°C 50% 4.1 mph SW6.6 kmh SW 6.0 mph9.7 kmh 30.05 in1017.6 mb 0.00 in0.0 mm 0.00 in0.0 mm 0.63 in16.0 mm
03:15 PM 68.9°F20.5°C 49.5°F9.7°C 50% 5.0 mph SW8.0 kmh SW 6.0 mph9.7 kmh 30.05 in1017.6 mb 0.00 in0.0 mm 0.00 in0.0 mm 0.63 in16.0 mm
03:00 PM 68.7°F20.4°C 50.4°F10.2°C 52% 5.3 mph WSW8.5 kmh WSW 10.7 mph17.2 kmh 30.05 in1017.6 mb 0.00 in0.0 mm 0.00 in0.0 mm 0.63 in16.0 mm
02:45 PM 68.9°F20.5°C 49.5°F9.7°C 50% 7.6 mph W12.2 kmh W 11.4 mph18.3 kmh 30.06 in1017.9 mb 0.00 in0.0 mm 0.00 in0.0 mm 0.63 in16.0 mm
02:30 PM 68.0°F20.0°C 48.7°F9.3°C 50% 7.7 mph WSW12.4 kmh WSW 10.7 mph17.2 kmh 30.05 in1017.6 mb 0.00 in0.0 mm 0.00 in0.0 mm 0.63 in16.0 mm
02:15 PM 68.5°F20.3°C 49.7°F9.8°C 51% 7.6 mph W12.2 kmh W 10.7 mph17.2 kmh 30.06 in1017.9 mb 0.00 in0.0 mm 0.00 in0.0 mm 0.63 in16.0 mm
02:00 PM 68.4°F20.2°C 49.6°F9.8°C 51% 7.3 mph WNW11.7 kmh WNW 10.7 mph17.2 kmh 30.05 in1017.6 mb 0.00 in0.0 mm 0.00 in0.0 mm 0.63 in16.0 mm
01:45 PM 68.2°F20.1°C 49.4°F9.7°C 51% 9.0 mph SW14.5 kmh SW 10.7 mph17.2 kmh 30.05 in1017.6 mb 0.00 in0.0 mm 0.00 in0.0 mm 0.63 in16.0 mm
01:30 PM 67.6°F19.8°C 50.4°F10.2°C 54% 9.1 mph WSW14.6 kmh WSW 15.2 mph24.5 kmh 30.06 in1017.9 mb 0.00 in0.0 mm 0.00 in0.0 mm 0.63 in16.0 mm
01:15 PM 68.7°F20.4°C 49.9°F9.9°C 51% 8.7 mph WNW14.0 kmh WNW 13.6 mph21.9 kmh 30.06 in1017.9 mb 0.00 in0.0 mm 0.00 in0.0 mm 0.63 in16.0 mm
01:00 PM 67.1°F19.5°C 48.9°F9.4°C 52% 8.8 mph SW14.2 kmh SW 14.5 mph23.3 kmh 30.06 in1017.9 mb 0.00 in0.0 mm 0.00 in0.0 mm 0.63 in16.0 mm
12:45 PM 67.6°F19.8°C 50.9°F10.5°C 55% 9.2 mph WSW14.8 kmh WSW 13.6 mph21.9 kmh 30.06 in1017.9 mb 0.00 in0.0 mm 0.00 in0.0 mm 0.63 in16.0 mm
12:30 PM 64.6°F18.1°C 49.0°F9.4°C 57% 10.4 mph W16.7 kmh W 13.6 mph21.9 kmh 30.06 in1017.9 mb 0.00 in0.0 mm 0.00 in0.0 mm 0.63 in16.0 mm
12:15 PM 64.0°F17.8°C 49.9°F9.9°C 60% 10.1 mph WNW16.3 kmh WNW 15.2 mph24.5 kmh 30.06 in1017.9 mb 0.00 in0.0 mm 0.00 in0.0 mm 0.63 in16.0 mm
12:00 PM 63.7°F17.6°C 50.4°F10.2°C 62% 9.1 mph WNW14.6 kmh WNW 15.2 mph24.5 kmh 30.07 in1018.3 mb 0.00 in0.0 mm 0.00 in0.0 mm 0.63 in16.0 mm
11:45 AM 63.7°F17.6°C 50.9°F10.5°C 63% 7.7 mph WSW12.4 kmh WSW 12.1 mph19.5 kmh 30.06 in1017.9 mb 0.00 in0.0 mm 0.00 in0.0 mm 0.63 in16.0 mm
11:30 AM 63.5°F17.5°C 50.7°F10.4°C 63% 8.0 mph NW12.9 kmh NW 9.2 mph14.8 kmh 30.06 in1017.9 mb 0.00 in0.0 mm 0.00 in0.0 mm 0.63 in16.0 mm
11:15 AM 63.1°F17.3°C 49.9°F9.9°C 62% 8.1 mph W13.0 kmh W 10.7 mph17.2 kmh 30.06 in1017.9 mb 0.00 in0.0 mm 0.00 in0.0 mm 0.63 in16.0 mm
11:00 AM 62.4°F16.9°C 49.7°F9.8°C 63% 8.4 mph W13.5 kmh W 9.2 mph14.8 kmh 30.06 in1017.9 mb 0.00 in0.0 mm 0.00 in0.0 mm 0.63 in16.0 mm
10:45 AM 62.4°F16.9°C 49.7°F9.8°C 63% 7.4 mph NW11.9 kmh NW 13.0 mph20.9 kmh 30.06 in1017.9 mb 0.00 in0.0 mm 0.00 in0.0 mm 0.63 in16.0 mm
10:30 AM 62.2°F16.8°C 49.5°F9.7°C 63% 8.5 mph WNW13.7 kmh WNW 10.7 mph17.2 kmh 30.06 in1017.9 mb 0.00 in0.0 mm 0.00 in0.0 mm 0.63 in16.0 mm
10:15 AM 61.7°F16.5°C 49.0°F9.4°C 63% 8.5 mph WNW13.7 kmh WNW 14.5 mph23.3 kmh 30.06 in1017.9 mb 0.00 in0.0 mm 0.00 in0.0 mm 0.63 in16.0 mm
10:00 AM 61.5°F16.4°C 49.2°F9.6°C 64% 7.8 mph NW12.6 kmh NW 12.1 mph19.5 kmh 30.06 in1017.9 mb 0.00 in0.0 mm 0.00 in0.0 mm 0.63 in16.0 mm
09:45 AM 61.2°F16.2°C 49.7°F9.8°C 66% 10.0 mph WNW16.1 kmh WNW 12.1 mph19.5 kmh 30.06 in1017.9 mb 0.00 in0.0 mm 0.00 in0.0 mm 0.63 in16.0 mm
09:30 AM 60.8°F16.0°C 51.4°F10.8°C 71% 8.0 mph WNW12.9 kmh WNW 10.7 mph17.2 kmh 30.05 in1017.6 mb 0.00 in0.0 mm 0.00 in0.0 mm 0.63 in16.0 mm
09:15 AM 59.9°F15.5°C 52.7°F11.5°C 77% 9.2 mph NW14.8 kmh NW 12.1 mph19.5 kmh 30.05 in1017.6 mb 0.00 in0.0 mm 0.00 in0.0 mm 0.63 in16.0 mm
09:00 AM 59.4°F15.2°C 53.9°F12.2°C 82% 8.4 mph NW13.5 kmh NW 13.0 mph20.9 kmh 30.05 in1017.6 mb 0.02 in0.5 mm 0.00 in0.0 mm 0.63 in16.0 mm
08:45 AM 57.2°F14.0°C 51.8°F11.0°C 82% 6.0 mph NW9.7 kmh NW 9.2 mph14.8 kmh 30.05 in1017.6 mb 0.07 in1.8 mm 0.00 in0.0 mm 0.63 in16.0 mm
08:30 AM 56.3°F13.5°C 50.6°F10.3°C 81% 6.1 mph NW9.8 kmh NW 8.3 mph13.4 kmh 30.05 in1017.6 mb 0.30 in7.6 mm 0.00 in0.0 mm 0.63 in16.0 mm
08:15 AM 55.9°F13.3°C 49.5°F9.7°C 79% 8.4 mph NW13.5 kmh NW 12.1 mph19.5 kmh 30.05 in1017.6 mb 0.46 in11.7 mm 0.00 in0.0 mm 0.63 in16.0 mm
08:00 AM 55.9°F13.3°C 48.8°F9.3°C 77% 5.0 mph WSW8.0 kmh WSW 8.3 mph13.4 kmh 30.05 in1017.6 mb 0.58 in14.7 mm 0.05 in1.3 mm 0.60 in15.2 mm
07:45 AM 55.9°F13.3°C 48.5°F9.2°C 76% 8.2 mph WSW13.2 kmh WSW 12.1 mph19.5 kmh 30.04 in1017.3 mb 0.54 in13.7 mm 0.88 in22.4 mm 0.56 in14.2 mm
07:30 AM 56.1°F13.4°C 48.7°F9.3°C 76% 5.1 mph W8.2 kmh W 7.6 mph12.2 kmh 30.05 in1017.6 mb 0.32 in8.1 mm 0.68 in17.3 mm 0.33 in8.4 mm
07:15 AM 56.7°F13.7°C 48.8°F9.3°C 75% 4.7 mph WSW7.6 kmh WSW 7.6 mph12.2 kmh 30.04 in1017.3 mb 0.15 in3.8 mm 0.56 in14.2 mm 0.17 in4.3 mm
07:00 AM 57.0°F13.9°C 48.8°F9.3°C 74% 6.6 mph WSW10.6 kmh WSW 9.8 mph15.8 kmh 30.04 in1017.3 mb 0.01 in0.3 mm 0.01 in0.3 mm 0.02 in0.5 mm
06:45 AM 56.8°F13.8°C 49.0°F9.4°C 75% 5.7 mph WSW9.2 kmh WSW 9.2 mph14.8 kmh 30.03 in1016.9 mb 0.00 in0.0 mm 0.00 in0.0 mm 0.01 in0.3 mm
06:30 AM 57.0°F13.9°C 49.2°F9.6°C 75% 4.4 mph SW7.1 kmh SW 6.0 mph9.7 kmh 30.04 in1017.3 mb 0.00 in0.0 mm 0.00 in0.0 mm 0.01 in0.3 mm
06:15 AM 57.0°F13.9°C 49.2°F9.6°C 75% 3.3 mph SW5.3 kmh SW 5.4 mph8.7 kmh 30.04 in1017.3 mb 0.01 in0.3 mm 0.00 in0.0 mm 0.01 in0.3 mm
06:00 AM 56.8°F13.8°C 49.0°F9.4°C 75% 4.1 mph WSW6.6 kmh WSW 5.4 mph8.7 kmh 30.03 in1016.9 mb 0.01 in0.3 mm 0.00 in0.0 mm 0.01 in0.3 mm
05:45 AM 56.7°F13.7°C 48.8°F9.3°C 75% 5.0 mph W8.0 kmh W 6.0 mph9.7 kmh 30.04 in1017.3 mb 0.01 in0.3 mm 0.00 in0.0 mm 0.01 in0.3 mm
05:30 AM 56.8°F13.8°C 48.7°F9.3°C 74% 4.5 mph WNW7.2 kmh WNW 6.9 mph11.1 kmh 30.04 in1017.3 mb 0.01 in0.3 mm 0.04 in1.0 mm 0.01 in0.3 mm
05:15 AM 56.7°F13.7°C 48.5°F9.2°C 74% 3.4 mph W5.5 kmh W 5.4 mph8.7 kmh 30.04 in1017.3 mb 0.00 in0.0 mm 0.00 in0.0 mm 0.00 in0.0 mm
05:00 AM 56.8°F13.8°C 49.0°F9.4°C 75% 4.9 mph WNW7.9 kmh WNW 6.0 mph9.7 kmh 30.03 in1016.9 mb 0.00 in0.0 mm 0.00 in0.0 mm 0.00 in0.0 mm
04:45 AM 56.5°F13.6°C 48.3°F9.1°C 74% 4.0 mph W6.4 kmh W 6.0 mph9.7 kmh 30.03 in1016.9 mb 0.00 in0.0 mm 0.00 in0.0 mm 0.00 in0.0 mm
04:30 AM 56.7°F13.7°C 48.8°F9.3°C 75% 4.1 mph WSW6.6 kmh WSW 6.0 mph9.7 kmh 30.03 in1016.9 mb 0.00 in0.0 mm 0.00 in0.0 mm 0.00 in0.0 mm
04:15 AM 56.7°F13.7°C 48.8°F9.3°C 75% 4.8 mph WNW7.7 kmh WNW 6.9 mph11.1 kmh 30.03 in1016.9 mb 0.00 in0.0 mm 0.00 in0.0 mm 0.00 in0.0 mm
04:00 AM 56.5°F13.6°C 48.7°F9.3°C 75% 6.0 mph WNW9.7 kmh WNW 11.4 mph18.3 kmh 30.02 in1016.6 mb 0.00 in0.0 mm 0.00 in0.0 mm 0.00 in0.0 mm
03:45 AM 56.3°F13.5°C 48.5°F9.2°C 75% 5.3 mph WNW8.5 kmh WNW 7.6 mph12.2 kmh 30.02 in1016.6 mb 0.00 in0.0 mm 0.00 in0.0 mm 0.00 in0.0 mm
03:30 AM 56.5°F13.6°C 49.4°F9.7°C 77% 5.7 mph WNW9.2 kmh WNW 7.6 mph12.2 kmh 30.02 in1016.6 mb 0.00 in0.0 mm 0.00 in0.0 mm 0.00 in0.0 mm
03:15 AM 56.3°F13.5°C 49.2°F9.6°C 77% 5.2 mph NW8.4 kmh NW 7.6 mph12.2 kmh 30.02 in1016.6 mb 0.00 in0.0 mm 0.00 in0.0 mm 0.00 in0.0 mm
03:00 AM 55.4°F13.0°C 48.7°F9.3°C 78% 4.5 mph NW7.2 kmh NW 7.6 mph12.2 kmh 30.03 in1016.9 mb 0.00 in0.0 mm 0.00 in0.0 mm 0.00 in0.0 mm
02:45 AM 54.5°F12.5°C 47.8°F8.8°C 78% 2.2 mph WSW3.5 kmh WSW 5.4 mph8.7 kmh 30.02 in1016.6 mb 0.00 in0.0 mm 0.00 in0.0 mm 0.00 in0.0 mm
02:30 AM 54.1°F12.3°C 47.1°F8.4°C 77% 2.3 mph SW3.7 kmh SW 3.8 mph6.1 kmh 30.03 in1016.9 mb 0.00 in0.0 mm 0.00 in0.0 mm 0.00 in0.0 mm
02:15 AM 54.0°F12.2°C 46.9°F8.3°C 77% 1.6 mph SW2.6 kmh SW 2.2 mph3.5 kmh 30.02 in1016.6 mb 0.00 in0.0 mm 0.00 in0.0 mm 0.00 in0.0 mm
02:00 AM 53.8°F12.1°C 46.4°F8.0°C 76% 2.4 mph WSW3.9 kmh WSW 3.8 mph6.1 kmh 30.02 in1016.6 mb 0.00 in0.0 mm 0.00 in0.0 mm 0.00 in0.0 mm
01:45 AM 53.8°F12.1°C 46.4°F8.0°C 76% 1.1 mph W1.8 kmh W 2.2 mph3.5 kmh 30.02 in1016.6 mb 0.00 in0.0 mm 0.00 in0.0 mm 0.00 in0.0 mm
01:30 AM 54.0°F12.2°C 46.6°F8.1°C 76% 1.6 mph W2.6 kmh W 3.8 mph6.1 kmh 30.02 in1016.6 mb 0.00 in0.0 mm 0.00 in0.0 mm 0.00 in0.0 mm
01:15 AM 53.8°F12.1°C 46.4°F8.0°C 76% 1.9 mph WSW3.1 kmh WSW 3.8 mph6.1 kmh 30.02 in1016.6 mb 0.00 in0.0 mm 0.00 in0.0 mm 0.00 in0.0 mm
01:00 AM 53.6°F12.0°C 45.9°F7.7°C 75% 2.4 mph WSW3.9 kmh WSW 3.8 mph6.1 kmh 30.02 in1016.6 mb 0.00 in0.0 mm 0.00 in0.0 mm 0.00 in0.0 mm
12:45 AM 54.0°F12.2°C 46.2°F7.9°C 75% 2.0 mph WSW3.2 kmh WSW 3.1 mph5.0 kmh 30.02 in1016.6 mb 0.00 in0.0 mm 0.00 in0.0 mm 0.00 in0.0 mm
12:30 AM 54.0°F12.2°C 46.2°F7.9°C 75% 3.3 mph W5.3 kmh W 4.5 mph7.2 kmh 30.02 in1016.6 mb 0.00 in0.0 mm 0.00 in0.0 mm 0.00 in0.0 mm
12:15 AM 54.1°F12.3°C 46.0°F7.8°C 74% 3.6 mph W5.8 kmh W 6.0 mph9.7 kmh 30.02 in1016.6 mb 0.00 in0.0 mm 0.00 in0.0 mm 0.00 in0.0 mm
12:00 AM 54.3°F12.4°C 46.2°F7.9°C 74% 4.1 mph W6.6 kmh W 5.4 mph8.7 kmh 30.03 in1016.9 mb 0.00 in0.0 mm 0.00 in0.0 mm 0.00 in0.0 mm